Bramon, Sweden

11:27 PM CET on December 17, 2014 (GMT +0100)
Bydalen | Change Station
CLOSE
Current Station
Personal Weather Station
Location: Sundsvall, VASTERNORRLAND
Elevation: 290 ft
Nearby Weather Stations

Elev 290 ft 62.42 °N, 17.33 °E | Updated 33 seconds ago

Clear
Clear
14.9 °F
Feels Like 15 °F
N
0.0
Wind Variable Wind from North
Gusts 0.0 mph

Today
High -- | Low -- °F
--% Chance of Precip.
Yesterday
High -- | Low -- °F
Precip. -- in
9:12 AM 2:17 PM
Waning Crescent, 19% visible
Pressure 29.42 in
Visibility -9999.0 miles
Clouds
Windchill 15 °F
Dew Point 14 °F
Humidity 95%
Rainfall 0.00 in
Snow Depth Not available.
UV Not available.
Pollen Not available.
Air Quality Not available.
Flu Activity Not available.
METAR ESNN 172220Z 34003KT CAVOK M10/M11 Q0996 R16/79//37

More Conditions Fewer Conditions

Pressure 29.42 in
Visibility -9999.0 miles
Clouds
Windchill 15 °F
Dew Point 14 °F
Humidity 95%
Rainfall 0.00 in
Snow Depth Not available.
UV Not available.
Pollen Not available.
Air Quality Not available.
Flu Activity Not available.
METAR ESNN 172220Z 34003KT CAVOK M10/M11 Q0996 R16/79//37

More Conditions Fewer Conditions

10-Day Weather Forecast

Almanac

Astronomy

Dec. 17, 2014 Rise Set
Actual Time
Civil Twilight
Nautical Twilight
Astronomical Twilight
Moon
Length of Visible Light
Length of Day
Tomorrow will be .
, % of the Moon is Illuminated

Today's Extremes

Country Highs Country Lows

Community

WunderPhotos

Upload Photos

1,778,811 photos uploaded!

WunderBlogs® & News

Nearby

Air Quality

  Air Quality AQ Index Pollutant
Not available.

Snow Depth

Station Depth Elevation

Earthquake Activity

City Distance Mag. Time & Date
Minimum magnitude displayed is 2.5.

Coastal Water Temperatures

Place Temperature

Nearby Weather Stations